Pacific Hope — 3FLH6 — position and weather

sailwx.info

Track history (hours):
 
Tides and Currents Weather Stations Pressure Air Temp Water Temp Dewpoint Dewpoint Depression Visibility Wind Speed Wind Dir Waves Ship Positions

Pacific Hope

Last reported at 2015-Aug-22 13:24 UTC. Time now 2015-Aug-28 12:42 UTC.
Position S 44°10' E 148°39'.

Length 169 m; draft 5.5 m.

Type: Ship. MMSI: 351849000.

Date/timePositionNaut miles runAvg speedWind from/ knotsBaromVisibWave heightAir tempDewpointWater temp
2015-Aug-22 13:24S 44°10' E 148°39'1917.5
2015-Aug-22 12:17S 44°14' E 148°13'0 0.1
2015-Aug-22 11:25S 44°14' E 148°13'1713.1
2015-Aug-22 10:06S 44°18' E 147°49'1012.1
2015-Aug-22 09:17S 44°20' E 147°36'1414.9
2015-Aug-22 08:22S 44°20' E 147°16'1415.5
2015-Aug-22 07:26S 44°20' E 146°56'1514.2
2015-Aug-22 06:24S 44°20' E 146°36'1313.2
2015-Aug-22 05:22S 44°20' E 146°17'7 7.6
2015-Aug-22 04:29S 44°20' E 146°07'1413.3
2015-Aug-22 03:27S 44°17' E 145°49'1717.9
2015-Aug-22 02:28S 44°11' E 145°26'14713.4
2015-Aug-21 15:29S 43°23' E 142°13'2913.1
2015-Aug-21 13:14S 43°14' E 141°34'1810.2
2015-Aug-21 11:30S 43°08' E 141°11'  
Track history (hours):
 
Tides and Currents Weather Stations Pressure Air Temp Water Temp Dewpoint Dewpoint Depression Visibility Wind Speed Wind Dir Waves Ship Positions

Pacific Hope

Last reported at 2015-Aug-22 13:24 UTC. Time now 2015-Aug-28 12:42 UTC.
Position S 44°10' E 148°39'.

Length 169 m; draft 5.5 m.

Type: Ship. MMSI: 351849000.

Date/timePositionNaut miles runAvg speedWind from/ knotsBaromVisibWave heightAir tempDewpointWater temp
2015-Aug-22 13:24S 44°10' E 148°39'1917.5
2015-Aug-22 12:17S 44°14' E 148°13'0 0.1
2015-Aug-22 11:25S 44°14' E 148°13'1713.1
2015-Aug-22 10:06S 44°18' E 147°49'1012.1
2015-Aug-22 09:17S 44°20' E 147°36'1414.9
2015-Aug-22 08:22S 44°20' E 147°16'1415.5
2015-Aug-22 07:26S 44°20' E 146°56'1514.2
2015-Aug-22 06:24S 44°20' E 146°36'1313.2
2015-Aug-22 05:22S 44°20' E 146°17'7 7.6
2015-Aug-22 04:29S 44°20' E 146°07'1413.3
2015-Aug-22 03:27S 44°17' E 145°49'1717.9
2015-Aug-22 02:28S 44°11' E 145°26'14713.4
2015-Aug-21 15:29S 43°23' E 142°13'2913.1
2015-Aug-21 13:14S 43°14' E 141°34'1810.2
2015-Aug-21 11:30S 43°08' E 141°11'  

Dump ship's entire track history